createdAt,value
2018-09-24T00:00:53.604Z,98652.75
2018-09-24T00:03:22.806Z,98646.48
2018-09-24T00:05:51.742Z,98665.88
2018-09-24T00:08:20.770Z,98636.16
2018-09-24T00:10:49.929Z,98655.23
2018-09-24T00:13:18.854Z,98591.19
2018-09-24T00:15:48.206Z,98573.70
2018-09-24T00:18:17.355Z,98598.78
2018-09-24T00:20:46.579Z,98608.59
2018-09-24T00:23:15.652Z,98612.20
2018-09-24T00:25:44.717Z,98610.83
2018-09-24T00:28:14.180Z,98648.75
2018-09-24T00:30:43.261Z,98671.39
2018-09-24T00:33:12.506Z,98665.64
2018-09-24T00:35:41.652Z,98699.20
2018-09-24T00:38:10.704Z,98691.89
2018-09-24T00:40:39.828Z,98722.95
2018-09-24T00:43:08.840Z,98791.91
2018-09-24T00:45:38.390Z,98789.50
2018-09-24T00:48:07.338Z,98778.69
2018-09-24T00:50:36.204Z,98809.83
2018-09-24T00:53:05.178Z,98827.89
2018-09-24T00:55:34.190Z,98887.88
2018-09-24T00:58:03.192Z,98890.22
2018-09-24T01:00:32.290Z,98917.58
2018-09-24T01:03:01.367Z,98935.68
2018-09-24T01:05:30.461Z,98991.26
2018-09-24T01:07:59.634Z,99037.27
2018-09-24T01:10:28.785Z,99032.13
2018-09-24T01:12:58.035Z,99026.45
2018-09-24T01:15:26.959Z,99047.65
2018-09-24T01:18:02.348Z,99030.82
2018-09-24T01:20:31.705Z,98987.33
2018-09-24T01:23:01.591Z,99011.81
2018-09-24T01:25:31.205Z,99039.77
2018-09-24T01:28:00.402Z,99044.64
2018-09-24T01:30:29.497Z,99081.27
2018-09-24T01:32:58.939Z,99096.19
2018-09-24T01:35:28.500Z,99123.02
2018-09-24T01:37:57.624Z,99168.84
2018-09-24T01:40:27.958Z,99178.05
2018-09-24T01:45:31.651Z,99189.61
2018-09-24T01:48:00.970Z,99204.47
2018-09-24T01:50:30.243Z,99203.36
2018-09-24T01:53:07.294Z,99209.48
2018-09-24T01:55:36.956Z,99207.98
2018-09-24T01:58:05.990Z,99218.77
2018-09-24T02:00:35.168Z,99217.88
2018-09-24T02:03:04.331Z,99194.53
2018-09-24T02:05:33.375Z,99196.41
2018-09-24T02:08:02.545Z,99174.69
2018-09-24T02:10:31.951Z,99169.83
2018-09-24T02:13:01.030Z,99184.15
2018-09-24T02:15:33.000Z,99187.91
2018-09-24T02:18:02.154Z,99185.66
2018-09-24T02:20:31.085Z,99194.78
2018-09-24T02:23:00.163Z,99178.47
2018-09-24T02:25:29.807Z,99196.04
2018-09-24T02:27:59.000Z,99200.87
2018-09-24T02:30:27.988Z,99215.23
2018-09-24T02:32:57.082Z,99215.73
2018-09-24T02:35:26.193Z,99218.89
2018-09-24T02:37:55.175Z,99231.02
2018-09-24T02:40:25.216Z,99238.00
2018-09-24T02:42:54.891Z,99240.98
2018-09-24T02:45:24.478Z,99247.45
2018-09-24T02:47:53.460Z,99244.67
2018-09-24T02:50:23.972Z,99251.64
2018-09-24T02:52:53.414Z,99261.56
2018-09-24T02:55:22.661Z,99271.84
2018-09-24T02:57:51.895Z,99298.34
2018-09-24T03:00:21.892Z,99291.47
2018-09-24T03:02:50.843Z,99293.80
2018-09-24T03:05:19.994Z,99281.27
2018-09-24T03:07:48.892Z,99327.77
2018-09-24T03:10:18.239Z,99361.00
2018-09-24T03:12:50.134Z,99370.41
2018-09-24T03:15:19.997Z,99381.73
2018-09-24T03:17:49.461Z,99397.36
2018-09-24T03:20:18.707Z,99397.07
2018-09-24T03:22:48.612Z,99390.80
2018-09-24T03:25:19.310Z,99411.36
2018-09-24T03:27:48.186Z,99423.79
2018-09-24T03:30:17.426Z,99430.55
2018-09-24T03:32:46.815Z,99424.88
2018-09-24T03:35:15.887Z,99443.55
2018-09-24T03:37:45.578Z,99454.63
2018-09-24T03:40:15.269Z,99469.73
2018-09-24T03:42:44.322Z,99472.14
2018-09-24T03:45:13.508Z,99483.23
2018-09-24T03:47:42.487Z,99500.21
2018-09-24T03:50:11.641Z,99517.48
2018-09-24T03:52:41.102Z,99512.08
2018-09-24T03:55:11.190Z,99513.17
2018-09-24T03:57:40.290Z,99520.38
2018-09-24T04:00:09.419Z,99539.31
2018-09-24T04:02:38.942Z,99539.31
2018-09-24T04:05:13.560Z,99555.98
2018-09-24T04:07:48.136Z,99536.67
2018-09-24T04:10:22.204Z,99533.63
2018-09-24T04:12:56.853Z,99542.54
2018-09-24T04:15:31.421Z,99545.02
2018-09-24T04:18:06.050Z,99555.30
2018-09-24T04:20:40.186Z,99565.52
2018-09-24T04:23:14.995Z,99558.42
2018-09-24T04:25:48.959Z,99568.32
2018-09-24T04:28:23.121Z,99580.89
2018-09-24T04:30:57.762Z,99596.84
2018-09-24T04:33:32.310Z,99596.84
2018-09-24T04:36:06.704Z,99605.52
2018-09-24T04:38:41.166Z,99630.33
2018-09-24T04:41:15.643Z,99634.30
2018-09-24T04:43:49.923Z,99654.96
2018-09-24T04:46:24.199Z,99668.52
2018-09-24T04:48:58.200Z,99674.76
2018-09-24T04:51:32.490Z,99667.92
2018-09-24T04:54:07.266Z,99672.80
2018-09-24T04:56:41.555Z,99677.46
2018-09-24T04:59:15.679Z,99670.45
2018-09-24T05:01:49.961Z,99679.39
2018-09-24T05:04:24.014Z,99684.57
2018-09-24T05:06:58.070Z,99693.51
2018-09-24T05:09:32.106Z,99688.67
2018-09-24T05:12:06.615Z,99710.00
2018-09-24T05:14:40.623Z,99728.92
2018-09-24T05:17:14.932Z,99730.05
2018-09-24T05:19:49.430Z,99724.42
2018-09-24T05:22:24.124Z,99729.36
2018-09-24T05:24:58.233Z,99749.16
2018-09-24T05:27:32.470Z,99746.45
2018-09-24T05:30:06.548Z,99745.68
2018-09-24T05:32:40.998Z,99750.64
2018-09-24T05:35:15.244Z,99750.92
2018-09-24T05:37:49.454Z,99762.34
2018-09-24T05:40:24.155Z,99759.63
2018-09-24T05:42:59.002Z,99767.80
2018-09-24T05:45:33.588Z,99765.34
2018-09-24T05:48:07.713Z,99769.20
2018-09-24T05:50:42.443Z,99768.98
2018-09-24T05:53:16.456Z,99774.16
2018-09-24T05:55:50.696Z,99781.20
2018-09-24T05:58:24.791Z,99781.55
2018-09-24T06:00:58.764Z,99786.52
2018-09-24T06:03:32.985Z,99785.44
2018-09-24T06:06:07.263Z,99794.98
2018-09-24T06:08:41.419Z,99796.16
2018-09-24T06:11:15.672Z,99814.14
2018-09-24T06:13:50.014Z,99820.44
2018-09-24T06:16:24.631Z,99825.84
2018-09-24T06:18:58.594Z,99809.34
2018-09-24T06:21:33.437Z,99829.43
2018-09-24T06:24:07.587Z,99827.90
2018-09-24T06:26:41.629Z,99836.75
2018-09-24T06:29:15.795Z,99837.33
2018-09-24T06:31:49.851Z,99857.32
2018-09-24T06:34:23.839Z,99854.09
2018-09-24T06:36:58.251Z,99870.58
2018-09-24T06:39:32.367Z,99869.98
2018-09-24T06:42:06.584Z,99875.17
2018-09-24T06:44:40.677Z,99876.91
2018-09-24T06:47:14.672Z,99874.02
2018-09-24T06:49:49.105Z,99876.08
2018-09-24T06:52:23.314Z,99892.90
2018-09-24T06:54:57.706Z,99883.42
2018-09-24T06:57:32.397Z,99883.67
2018-09-24T07:00:06.622Z,99905.03
2018-09-24T07:02:40.836Z,99902.33
2018-09-24T07:05:15.623Z,99912.84
2018-09-24T07:07:49.936Z,99923.58
2018-09-24T07:10:23.990Z,99935.09
2018-09-24T07:12:57.937Z,99930.40
2018-09-24T07:15:32.732Z,99951.47
2018-09-24T07:18:06.692Z,99962.83
2018-09-24T07:20:40.887Z,99973.29
2018-09-24T07:23:14.948Z,99980.53
2018-09-24T07:25:48.935Z,99985.58
2018-09-24T07:28:22.964Z,99985.58
2018-09-24T07:30:58.058Z,99999.11
2018-09-24T07:33:32.238Z,100025.34
2018-09-24T07:36:06.185Z,100016.61
2018-09-24T07:38:40.234Z,100013.33
2018-09-24T07:41:14.257Z,100020.39
2018-09-24T07:43:49.026Z,100016.97
2018-09-24T07:46:23.090Z,100024.88
2018-09-24T07:48:57.199Z,100026.53
2018-09-24T07:51:31.542Z,100029.52
2018-09-24T07:54:05.514Z,100044.34
2018-09-24T07:56:39.827Z,100047.88
2018-09-24T07:59:14.467Z,100032.38
2018-09-24T08:01:48.772Z,100040.38
2018-09-24T08:04:23.311Z,100045.18
2018-09-24T08:06:57.861Z,100064.73
2018-09-24T08:09:31.895Z,100057.08
2018-09-24T08:12:06.032Z,100064.06
2018-09-24T08:14:40.282Z,100072.95
2018-09-24T08:17:14.469Z,100074.89
2018-09-24T08:19:48.624Z,100076.39
2018-09-24T08:22:24.027Z,100081.92
2018-09-24T08:24:58.326Z,100094.03
2018-09-24T08:27:32.384Z,100101.74
2018-09-24T08:30:06.406Z,100100.48
2018-09-24T08:32:40.428Z,100116.56
2018-09-24T08:35:14.580Z,100112.59
2018-09-24T08:37:48.799Z,100118.67
2018-09-24T08:40:23.001Z,100120.09
2018-09-24T08:42:57.487Z,100123.69
2018-09-24T08:45:32.077Z,100132.70
2018-09-24T08:48:06.515Z,100154.14
2018-09-24T08:50:40.777Z,100132.78
2018-09-24T08:53:15.292Z,100150.91
2018-09-24T08:55:49.737Z,100158.04
2018-09-24T08:58:23.965Z,100155.91
2018-09-24T09:00:58.523Z,100161.17
2018-09-24T09:03:33.210Z,100171.91
2018-09-24T09:06:07.506Z,100166.69
2018-09-24T09:08:41.523Z,100173.60
2018-09-24T09:11:16.287Z,100182.40
2018-09-24T09:13:50.601Z,100182.54
2018-09-24T09:16:24.826Z,100183.64
2018-09-24T09:18:59.192Z,100185.30
2018-09-24T09:21:33.509Z,100182.29
2018-09-24T09:24:07.647Z,100187.70
2018-09-24T09:26:41.984Z,100193.44
2018-09-24T09:29:16.356Z,100190.26
2018-09-24T09:31:51.590Z,100197.17
2018-09-24T09:34:25.842Z,100205.14
2018-09-24T09:37:00.838Z,100207.69
2018-09-24T09:39:34.970Z,100212.85
2018-09-24T09:42:08.928Z,100209.56
2018-09-24T09:44:43.090Z,100221.40
2018-09-24T09:47:17.190Z,100220.05
2018-09-24T09:49:51.802Z,100214.68
2018-09-24T09:52:25.960Z,100221.07
2018-09-24T09:55:00.338Z,100227.13
2018-09-24T09:57:35.559Z,100221.79
2018-09-24T10:00:10.167Z,100235.04
2018-09-24T10:02:44.668Z,100224.94
2018-09-24T10:05:19.407Z,100217.64
2018-09-24T10:07:53.524Z,100214.41
2018-09-24T10:10:27.662Z,100214.19
2018-09-24T10:13:01.927Z,100232.16
2018-09-24T10:15:36.064Z,100235.76
2018-09-24T10:18:10.112Z,100219.84
2018-09-24T10:20:44.270Z,100233.30
2018-09-24T10:23:18.351Z,100228.48
2018-09-24T10:25:52.450Z,100241.51
2018-09-24T10:28:26.450Z,100235.09
2018-09-24T10:31:00.378Z,100226.17
2018-09-24T10:33:34.832Z,100221.00
2018-09-24T10:36:09.892Z,100235.36
2018-09-24T10:38:43.870Z,100232.78
2018-09-24T10:41:17.991Z,100236.02
2018-09-24T10:43:51.935Z,100238.30
2018-09-24T10:46:26.033Z,100227.11
2018-09-24T10:49:00.128Z,100229.34
2018-09-24T10:51:34.370Z,100261.91
2018-09-24T10:54:08.440Z,100244.57
2018-09-24T10:56:42.539Z,100251.66
2018-09-24T10:59:16.980Z,100265.70
2018-09-24T11:01:51.043Z,100256.73
2018-09-24T11:04:25.669Z,100248.34
2018-09-24T11:07:00.375Z,100256.56
2018-09-24T11:09:34.602Z,100254.55
2018-09-24T11:12:08.770Z,100247.64
2018-09-24T11:14:43.028Z,100248.34
2018-09-24T11:17:17.469Z,100255.08
2018-09-24T11:19:52.159Z,100246.66
2018-09-24T11:22:26.550Z,100256.41
2018-09-24T11:25:01.262Z,100270.55
2018-09-24T11:27:35.339Z,100246.98
2018-09-24T11:30:09.478Z,100260.05
2018-09-24T11:32:43.597Z,100250.84
2018-09-24T11:35:17.749Z,100247.77
2018-09-24T11:37:51.999Z,100251.55
2018-09-24T11:40:26.012Z,100251.85
2018-09-24T11:43:00.332Z,100243.40
2018-09-24T11:45:34.423Z,100255.62
2018-09-24T11:48:08.440Z,100236.56
2018-09-24T11:50:43.802Z,100239.16
2018-09-24T11:53:18.112Z,100232.33
2018-09-24T11:55:52.369Z,100230.98
2018-09-24T11:58:26.452Z,100226.38
2018-09-24T12:01:00.467Z,100226.91
2018-09-24T12:03:34.686Z,100230.45
2018-09-24T12:06:08.734Z,100226.91
2018-09-24T12:08:42.893Z,100237.23
2018-09-24T12:11:16.910Z,100233.51
2018-09-24T12:13:51.531Z,100240.95
2018-09-24T12:16:26.137Z,100233.89
2018-09-24T12:19:00.250Z,100239.03
2018-09-24T12:21:34.538Z,100243.75
2018-09-24T12:24:08.626Z,100234.36
2018-09-24T12:26:42.971Z,100228.21
2018-09-24T12:29:17.208Z,100240.81
2018-09-24T12:31:52.023Z,100241.69
2018-09-24T12:34:26.299Z,100221.38
2018-09-24T12:37:00.395Z,100214.10
2018-09-24T12:39:34.464Z,100215.27
2018-09-24T12:42:08.838Z,100227.84
2018-09-24T12:44:43.324Z,100220.70
2018-09-24T12:47:17.393Z,100225.52
2018-09-24T12:49:51.678Z,100225.97
2018-09-24T12:52:26.233Z,100229.12
2018-09-24T12:55:00.542Z,100206.48
2018-09-24T12:57:34.628Z,100217.52
2018-09-24T13:00:08.638Z,100226.14
2018-09-24T13:02:42.623Z,100214.28
2018-09-24T13:05:16.801Z,100214.28
2018-09-24T13:07:51.152Z,100219.34
2018-09-24T13:10:25.412Z,100228.53
2018-09-24T13:12:59.660Z,100221.13
2018-09-24T13:15:34.288Z,100232.97
2018-09-24T13:18:08.382Z,100242.69
2018-09-24T13:20:42.632Z,100236.69
2018-09-24T13:23:16.960Z,100247.80
2018-09-24T13:25:51.430Z,100248.06
2018-09-24T13:28:25.523Z,100237.18
2018-09-24T13:30:59.917Z,100251.34
2018-09-24T13:33:34.214Z,100226.67
2018-09-24T13:36:08.251Z,100230.85
2018-09-24T13:38:42.507Z,100221.13
2018-09-24T13:41:16.713Z,100218.57
2018-09-24T13:43:51.121Z,100217.06
2018-09-24T13:46:25.231Z,100208.50
2018-09-24T13:48:59.851Z,100220.03
2018-09-24T13:51:34.006Z,100209.97
2018-09-24T13:54:09.037Z,100209.97
2018-09-24T13:56:43.080Z,100221.69
2018-09-24T13:59:17.565Z,100228.81
2018-09-24T14:01:51.571Z,100220.41
2018-09-24T14:04:25.554Z,100266.03
2018-09-24T14:06:59.544Z,100281.97
2018-09-24T14:09:34.507Z,100272.32
2018-09-24T14:12:08.485Z,100275.23
2018-09-24T14:14:42.501Z,100260.32
2018-09-24T14:17:16.556Z,100259.52
2018-09-24T14:19:50.563Z,100255.92
2018-09-24T14:22:24.447Z,100253.69
2018-09-24T14:24:58.494Z,100252.09
2018-09-24T14:27:32.605Z,100250.20
2018-09-24T14:30:06.428Z,100236.75
2018-09-24T14:32:40.699Z,100250.37
2018-09-24T14:35:14.598Z,100246.95
2018-09-24T14:37:48.693Z,100256.80
2018-09-24T14:40:22.534Z,100253.59
2018-09-24T14:42:56.658Z,100249.34
2018-09-24T14:45:31.192Z,100246.44
2018-09-24T14:48:05.465Z,100262.89
2018-09-24T14:50:39.691Z,100249.16
2018-09-24T14:53:13.839Z,100250.06
2018-09-24T14:55:48.465Z,100256.67
2018-09-24T14:58:22.446Z,100251.01
2018-09-24T15:00:56.613Z,100246.41
2018-09-24T15:03:30.692Z,100231.76
2018-09-24T15:06:04.717Z,100239.01
2018-09-24T15:08:39.069Z,100239.54
2018-09-24T15:11:13.422Z,100242.52
2018-09-24T15:13:47.563Z,100256.25
2018-09-24T15:16:21.863Z,100243.87
2018-09-24T15:18:56.047Z,100253.50
2018-09-24T15:21:30.150Z,100253.00
2018-09-24T15:24:04.236Z,100258.55
2018-09-24T15:26:38.747Z,100273.05
2018-09-24T15:29:12.737Z,100270.97
2018-09-24T15:31:46.911Z,100263.11
2018-09-24T15:34:21.050Z,100263.86
2018-09-24T15:36:55.289Z,100260.77
2018-09-24T15:39:29.534Z,100259.91
2018-09-24T15:42:03.767Z,100259.27
2018-09-24T15:44:37.751Z,100257.00
2018-09-24T15:47:11.942Z,100273.16
2018-09-24T15:49:46.280Z,100297.95
2018-09-24T15:52:20.593Z,100283.57
2018-09-24T15:54:54.686Z,100296.12
2018-09-24T15:57:29.265Z,100286.02
2018-09-24T16:00:03.930Z,100286.59
2018-09-24T16:02:38.123Z,100289.88
2018-09-24T16:05:12.187Z,100272.29
2018-09-24T16:07:46.314Z,100286.23
2018-09-24T16:10:20.742Z,100279.85
2018-09-24T16:12:54.803Z,100287.34
2018-09-24T16:15:28.934Z,100302.16
2018-09-24T16:18:03.350Z,100290.28
2018-09-24T16:20:37.418Z,100301.26
2018-09-24T16:23:11.835Z,100302.69
2018-09-24T16:25:45.964Z,100306.31
2018-09-24T16:28:19.898Z,100305.66
2018-09-24T16:30:54.214Z,100309.52
2018-09-24T16:33:28.152Z,100304.87
2018-09-24T16:36:02.211Z,100308.02
2018-09-24T16:38:36.568Z,100318.59
2018-09-24T16:41:10.849Z,100322.94
2018-09-24T16:43:44.935Z,100332.42
2018-09-24T16:46:19.012Z,100342.16
2018-09-24T16:48:53.184Z,100325.59
2018-09-24T16:51:27.487Z,100336.38
2018-09-24T16:54:01.529Z,100337.59
2018-09-24T16:56:35.604Z,100338.52
2018-09-24T16:59:10.745Z,100353.42
2018-09-24T17:01:45.070Z,100336.79
2018-09-24T17:04:19.198Z,100356.75
2018-09-24T17:06:53.561Z,100362.48
2018-09-24T17:09:27.753Z,100362.94
2018-09-24T17:12:01.938Z,100370.08
2018-09-24T17:14:36.265Z,100377.53
2018-09-24T17:17:10.632Z,100370.91
2018-09-24T17:19:44.774Z,100392.73
2018-09-24T17:22:19.098Z,100401.11
2018-09-24T17:24:53.328Z,100405.69
2018-09-24T17:27:27.380Z,100403.13
2018-09-24T17:30:01.500Z,100418.48
2018-09-24T17:32:35.457Z,100422.75
2018-09-24T17:35:09.980Z,100427.06
2018-09-24T17:37:44.430Z,100441.13
2018-09-24T17:40:18.375Z,100438.94
2018-09-24T17:42:52.407Z,100435.92
2018-09-24T17:45:26.383Z,100434.26
2018-09-24T17:48:00.585Z,100449.16
2018-09-24T17:50:34.661Z,100446.38
2018-09-24T17:53:09.041Z,100440.58
2018-09-24T17:55:44.462Z,100444.33
2018-09-24T17:58:18.478Z,100455.92
2018-09-24T18:00:53.233Z,100446.45
2018-09-24T18:03:28.222Z,100453.12
2018-09-24T18:06:02.972Z,100445.69
2018-09-24T18:08:37.063Z,100448.60
2018-09-24T18:11:11.715Z,100464.64
2018-09-24T18:13:46.036Z,100452.66
2018-09-24T18:16:20.102Z,100461.00
2018-09-24T18:18:54.303Z,100453.70
2018-09-24T18:21:28.593Z,100452.80
2018-09-24T18:24:03.077Z,100450.02
2018-09-24T18:26:37.172Z,100447.63
2018-09-24T18:29:11.605Z,100460.09
2018-09-24T18:31:46.280Z,100470.64
2018-09-24T18:34:20.724Z,100480.53
2018-09-24T18:36:55.048Z,100469.84
2018-09-24T18:39:29.434Z,100481.61
2018-09-24T18:42:03.461Z,100474.22
2018-09-24T18:44:37.570Z,100476.92
2018-09-24T18:47:11.858Z,100478.72
2018-09-24T18:49:46.205Z,100491.22
2018-09-24T18:52:20.238Z,100496.11
2018-09-24T18:54:54.248Z,100507.45
2018-09-24T18:57:28.284Z,100499.34
2018-09-24T19:00:02.556Z,100497.98
2018-09-24T19:02:36.878Z,100498.27
2018-09-24T19:05:11.194Z,100499.20
2018-09-24T19:07:45.389Z,100510.42
2018-09-24T19:10:19.487Z,100510.94
2018-09-24T19:12:53.807Z,100505.21
2018-09-24T19:15:28.035Z,100510.18
2018-09-24T19:18:02.660Z,100507.47
2018-09-24T19:27:54.809Z,100509.77
2018-09-24T19:30:28.932Z,100517.30
2018-09-24T19:33:03.182Z,100512.20
2018-09-24T19:35:38.272Z,100514.77
2018-09-24T19:38:12.548Z,100521.13
2018-09-24T19:40:46.771Z,100514.84
2018-09-24T19:43:20.897Z,100519.02
2018-09-24T19:45:55.399Z,100515.47
2018-09-24T19:48:30.014Z,100512.88
2018-09-24T19:51:04.322Z,100521.06
2018-09-24T19:53:38.622Z,100521.91
2018-09-24T19:56:12.853Z,100522.94
2018-09-24T19:58:47.209Z,100526.48
2018-09-24T20:01:21.745Z,100540.23
2018-09-24T20:03:56.189Z,100532.34
2018-09-24T20:06:30.200Z,100540.54
2018-09-24T20:09:04.462Z,100545.83
2018-09-24T20:11:38.933Z,100547.49
2018-09-24T20:14:13.373Z,100550.72
2018-09-24T20:16:47.597Z,100549.68
2018-09-24T20:19:21.622Z,100553.73
2018-09-24T20:21:56.142Z,100560.64
2018-09-24T20:24:30.305Z,100559.05
2018-09-24T20:27:04.355Z,100550.80
2018-09-24T20:29:38.470Z,100559.55
2018-09-24T20:32:12.453Z,100562.64
2018-09-24T20:34:46.723Z,100551.29
2018-09-24T20:37:20.803Z,100551.89
2018-09-24T20:39:54.926Z,100557.09
2018-09-24T20:42:29.145Z,100556.26
2018-09-24T20:45:03.234Z,100560.39
2018-09-24T20:47:38.533Z,100554.59
2018-09-24T20:50:12.766Z,100561.36
2018-09-24T20:52:47.044Z,100564.08
2018-09-24T20:55:21.574Z,100556.47
2018-09-24T20:57:55.964Z,100568.89
2018-09-24T21:00:30.095Z,100568.58
2018-09-24T21:03:04.187Z,100572.64
2018-09-24T21:05:38.297Z,100574.83
2018-09-24T21:08:12.531Z,100578.05
2018-09-24T21:10:46.552Z,100567.75
2018-09-24T21:13:20.732Z,100598.57
2018-09-24T21:15:55.311Z,100580.58
2018-09-24T21:18:29.698Z,100592.69
2018-09-24T21:21:04.291Z,100579.59
2018-09-24T21:23:38.449Z,100587.01
2018-09-24T21:26:12.802Z,100601.39
2018-09-24T21:28:46.977Z,100596.31
2018-09-24T21:31:21.393Z,100608.41
2018-09-24T21:33:55.291Z,100596.87
2018-09-24T21:36:29.989Z,100601.78
2018-09-24T21:39:04.060Z,100609.94
2018-09-24T21:41:38.512Z,100614.87
2018-09-24T21:44:12.579Z,100615.19
2018-09-24T21:46:46.652Z,100623.42
2018-09-24T21:49:22.635Z,100618.53
2018-09-24T21:51:56.763Z,100618.96
2018-09-24T21:54:31.436Z,100623.25
2018-09-24T21:57:06.023Z,100618.56
2018-09-24T21:59:40.167Z,100616.09
2018-09-24T22:02:14.195Z,100609.44
2018-09-24T22:04:48.375Z,100614.73
2018-09-24T22:07:22.921Z,100624.43
2018-09-24T22:09:56.994Z,100617.78
2018-09-24T22:12:31.529Z,100624.14
2018-09-24T22:15:05.980Z,100624.57
2018-09-24T22:17:40.315Z,100622.38
2018-09-24T22:20:14.348Z,100620.52
2018-09-24T22:22:55.572Z,100625.69
2018-09-24T22:25:29.891Z,100628.83
2018-09-24T22:28:03.983Z,100627.99
2018-09-24T22:30:44.848Z,100634.98
2018-09-24T22:33:18.963Z,100643.61
2018-09-24T22:35:53.543Z,100644.73
2018-09-24T22:38:27.861Z,100633.08
2018-09-24T22:41:02.346Z,100643.61
2018-09-24T22:43:36.689Z,100637.37
2018-09-24T22:46:10.952Z,100642.14
2018-09-24T22:48:45.542Z,100649.22
2018-09-24T22:51:19.853Z,100642.78
2018-09-24T22:53:54.851Z,100642.86
2018-09-24T22:56:28.948Z,100645.05
2018-09-24T22:59:03.226Z,100648.07
2018-09-24T23:01:37.317Z,100652.73
2018-09-24T23:04:11.777Z,100655.12
2018-09-24T23:06:45.809Z,100655.78
2018-09-24T23:09:19.883Z,100656.81
2018-09-24T23:11:54.168Z,100660.67
2018-09-24T23:14:28.860Z,100663.98
2018-09-24T23:17:02.909Z,100664.81
2018-09-24T23:19:37.454Z,100672.18
2018-09-24T23:22:11.927Z,100679.89
2018-09-24T23:24:46.816Z,100688.52
2018-09-24T23:27:20.775Z,100685.50
2018-09-24T23:29:55.477Z,100684.26
2018-09-24T23:32:29.788Z,100685.09
2018-09-24T23:35:04.265Z,100687.89
2018-09-24T23:37:38.668Z,100691.83
2018-09-24T23:40:13.293Z,100690.80
2018-09-24T23:42:47.779Z,100697.13
2018-09-24T23:45:22.199Z,100693.08
2018-09-24T23:47:56.344Z,100697.33
2018-09-24T23:50:30.366Z,100698.59
2018-09-24T23:53:04.332Z,100713.06
2018-09-24T23:55:38.578Z,100707.84
2018-09-24T23:58:13.204Z,100722.11
